createdAt,value
2023-03-29T00:03:20.456Z,-4.35
2023-03-29T00:08:22.236Z,-4.37
2023-03-29T00:13:24.187Z,-4.34
2023-03-29T00:18:26.240Z,-4.26
2023-03-29T00:23:28.246Z,-4.24
2023-03-29T00:28:30.550Z,-4.26
2023-03-29T00:33:32.234Z,-4.31
2023-03-29T00:38:34.680Z,-4.38
2023-03-29T00:43:59.844Z,-4.45
2023-03-29T00:49:12.905Z,-4.56
2023-03-29T00:54:18.742Z,-4.65
2023-03-29T00:59:24.553Z,-4.68
2023-03-29T01:04:45.536Z,-4.64
2023-03-29T01:09:53.219Z,-4.56
2023-03-29T01:15:02.172Z,-4.49
2023-03-29T01:20:14.248Z,-4.50
2023-03-29T01:25:20.311Z,-4.60
2023-03-29T01:30:34.501Z,-4.71
2023-03-29T01:35:44.696Z,-4.81
2023-03-29T01:40:46.682Z,-4.83
2023-03-29T01:46:19.091Z,-4.76
2023-03-29T01:51:31.866Z,-4.70
2023-03-29T01:56:41.699Z,-4.66
2023-03-29T02:01:49.672Z,-4.67
2023-03-29T02:06:54.276Z,-4.73
2023-03-29T02:12:00.881Z,-4.82
2023-03-29T02:17:16.636Z,-4.86
2023-03-29T02:22:26.532Z,-4.84
2023-03-29T02:27:29.543Z,-4.78
2023-03-29T02:32:59.525Z,-4.81
2023-03-29T02:38:04.595Z,-4.89
2023-03-29T02:43:08.388Z,-5.01
2023-03-29T02:48:16.307Z,-5.13
2023-03-29T02:53:24.211Z,-5.19
2023-03-29T02:58:26.734Z,-5.15
2023-03-29T03:03:29.352Z,-5.10
2023-03-29T03:08:32.845Z,-5.10
2023-03-29T03:13:34.706Z,-5.16
2023-03-29T03:18:36.691Z,-5.21
2023-03-29T03:23:38.387Z,-5.25
2023-03-29T03:28:41.806Z,-5.32
2023-03-29T03:33:46.409Z,-5.35
2023-03-29T03:39:11.879Z,-5.29
2023-03-29T03:44:13.882Z,-5.17
2023-03-29T03:49:17.312Z,-5.06
2023-03-29T03:54:19.125Z,-4.97
2023-03-29T03:59:43.445Z,-4.92
2023-03-29T04:04:49.554Z,-4.89
2023-03-29T04:09:54.195Z,-4.87
2023-03-29T04:15:05.077Z,-4.87
2023-03-29T04:20:10.318Z,-4.88
2023-03-29T04:25:12.395Z,-4.85
2023-03-29T04:30:20.464Z,-4.78
2023-03-29T04:35:42.492Z,-4.69
2023-03-29T04:40:48.498Z,-4.60
2023-03-29T04:46:28.944Z,-4.52
2023-03-29T04:52:01.000Z,-4.45
2023-03-29T04:57:06.178Z,-4.26
2023-03-29T05:02:32.411Z,-4.06
2023-03-29T05:07:35.667Z,-3.73
2023-03-29T05:12:37.636Z,-2.99
2023-03-29T05:17:39.480Z,-1.96
2023-03-29T05:22:44.871Z,-0.61
2023-03-29T05:27:52.117Z,0.83
2023-03-29T05:32:54.244Z,2.12
2023-03-29T05:38:00.673Z,3.02
2023-03-29T05:43:02.855Z,3.55
2023-03-29T05:48:05.540Z,3.74
2023-03-29T05:53:08.090Z,4.29
2023-03-29T05:58:12.352Z,5.33
2023-03-29T06:03:21.111Z,6.71
2023-03-29T06:08:24.218Z,7.83
2023-03-29T06:13:37.144Z,9.01
2023-03-29T06:18:40.312Z,9.74
2023-03-29T06:23:42.921Z,10.31
2023-03-29T06:28:44.907Z,10.98
2023-03-29T06:33:47.255Z,11.37
2023-03-29T06:38:59.032Z,11.66
2023-03-29T06:44:23.876Z,12.13
2023-03-29T06:49:34.402Z,12.61
2023-03-29T06:55:01.704Z,12.80
2023-03-29T07:00:16.297Z,13.35
2023-03-29T07:05:40.966Z,13.93
2023-03-29T07:10:47.597Z,14.27
2023-03-29T07:16:14.845Z,14.59
2023-03-29T07:21:31.094Z,14.88
2023-03-29T07:26:33.362Z,15.28
2023-03-29T07:31:38.650Z,15.51
2023-03-29T07:37:03.151Z,15.56
2023-03-29T07:42:06.749Z,15.52
2023-03-29T07:47:09.406Z,15.55
2023-03-29T07:52:12.124Z,15.79
2023-03-29T07:57:15.001Z,15.97
2023-03-29T08:02:21.440Z,16.13
2023-03-29T08:07:25.753Z,15.93
2023-03-29T08:12:58.174Z,15.79
2023-03-29T08:18:09.240Z,15.69
2023-03-29T08:23:11.595Z,15.75
2023-03-29T08:28:28.392Z,15.83
2023-03-29T08:33:30.497Z,15.90
2023-03-29T08:38:51.628Z,15.83
2023-03-29T08:44:27.908Z,15.76
2023-03-29T08:49:38.010Z,15.44
2023-03-29T08:54:45.982Z,15.24
2023-03-29T09:00:07.042Z,14.85
2023-03-29T09:05:34.926Z,14.46
2023-03-29T09:11:26.184Z,14.31
2023-03-29T09:16:38.191Z,14.25
2023-03-29T09:22:04.210Z,13.88
2023-03-29T09:27:43.817Z,13.40
2023-03-29T09:33:19.933Z,12.92
2023-03-29T09:38:39.676Z,12.26
2023-03-29T09:43:44.328Z,11.66
2023-03-29T09:48:51.642Z,11.15
2023-03-29T09:53:56.571Z,10.84
2023-03-29T09:59:23.950Z,10.60
2023-03-29T10:04:26.221Z,10.35
2023-03-29T10:09:33.164Z,10.01
2023-03-29T10:14:51.502Z,9.70
2023-03-29T10:20:17.065Z,9.41
2023-03-29T10:25:19.062Z,9.40
2023-03-29T10:30:26.122Z,9.68
2023-03-29T10:35:29.743Z,9.76
2023-03-29T10:40:40.151Z,9.81
2023-03-29T10:45:42.536Z,9.75
2023-03-29T10:50:50.439Z,9.67
2023-03-29T10:56:27.979Z,9.81
2023-03-29T11:01:57.485Z,9.84
2023-03-29T11:07:27.176Z,9.81
2023-03-29T11:12:31.663Z,9.76
2023-03-29T11:18:01.024Z,9.62
2023-03-29T11:23:18.130Z,9.74
2023-03-29T11:28:35.509Z,9.90
2023-03-29T11:34:02.313Z,10.08
2023-03-29T11:39:42.429Z,10.15
2023-03-29T11:44:47.027Z,10.26
2023-03-29T11:49:59.466Z,10.38
2023-03-29T11:55:27.964Z,10.55
2023-03-29T12:00:37.649Z,10.51
2023-03-29T12:05:46.859Z,10.36
2023-03-29T12:10:55.786Z,10.30
2023-03-29T12:16:05.029Z,10.55
2023-03-29T12:21:14.153Z,10.79
2023-03-29T12:26:37.931Z,10.86
2023-03-29T12:31:49.076Z,10.85
2023-03-29T12:37:24.497Z,10.76
2023-03-29T12:42:47.729Z,10.73
2023-03-29T12:48:17.399Z,10.80
2023-03-29T12:53:26.984Z,10.87
2023-03-29T12:58:59.724Z,10.85
2023-03-29T13:04:01.464Z,10.94
2023-03-29T13:09:23.093Z,11.01
2023-03-29T13:14:30.274Z,11.15
2023-03-29T13:20:07.684Z,11.16
2023-03-29T13:25:41.716Z,11.17
2023-03-29T13:30:52.473Z,11.13
2023-03-29T13:36:26.593Z,11.01
2023-03-29T13:41:31.708Z,10.83
2023-03-29T13:46:41.004Z,10.54
2023-03-29T13:52:02.512Z,10.33
2023-03-29T13:57:20.591Z,10.24
2023-03-29T14:02:32.967Z,10.18
2023-03-29T14:07:37.863Z,10.23
2023-03-29T14:12:41.872Z,10.27
2023-03-29T14:17:44.136Z,10.21
2023-03-29T14:22:46.508Z,10.12
2023-03-29T14:27:49.073Z,10.09
2023-03-29T14:32:52.363Z,10.04
2023-03-29T14:37:54.233Z,10.01
2023-03-29T14:42:56.350Z,9.96
2023-03-29T14:47:59.460Z,9.95
2023-03-29T14:53:01.935Z,9.89
2023-03-29T14:58:04.367Z,9.80
2023-03-29T15:03:14.017Z,9.67
2023-03-29T15:08:29.042Z,9.53
2023-03-29T15:13:30.850Z,9.38
2023-03-29T15:18:42.450Z,9.23
2023-03-29T15:23:53.025Z,9.11
2023-03-29T15:29:07.983Z,9.04
2023-03-29T15:34:24.152Z,8.97
2023-03-29T15:39:29.205Z,8.88
2023-03-29T15:44:33.976Z,8.84
2023-03-29T15:49:36.046Z,8.78
2023-03-29T15:54:37.813Z,8.70
2023-03-29T15:59:39.656Z,8.60
2023-03-29T16:04:41.806Z,8.49
2023-03-29T16:09:46.774Z,8.37
2023-03-29T16:14:48.512Z,8.24
2023-03-29T16:19:50.144Z,8.09
2023-03-29T16:24:52.219Z,7.95
2023-03-29T16:29:53.904Z,7.86
2023-03-29T16:34:58.463Z,7.80
2023-03-29T16:40:00.421Z,7.73
2023-03-29T16:45:02.304Z,7.66
2023-03-29T16:50:04.715Z,7.62
2023-03-29T16:55:08.069Z,7.56
2023-03-29T17:00:11.242Z,7.51
2023-03-29T17:05:12.976Z,7.46
2023-03-29T17:10:14.894Z,7.39
2023-03-29T17:15:18.417Z,7.31
2023-03-29T17:20:20.338Z,7.25
2023-03-29T17:25:23.550Z,7.19
2023-03-29T17:30:25.391Z,7.11
2023-03-29T17:35:27.122Z,7.02
2023-03-29T17:40:28.765Z,6.92
2023-03-29T17:45:30.894Z,6.82
2023-03-29T17:50:32.540Z,6.76
2023-03-29T17:55:34.174Z,6.69
2023-03-29T18:00:35.905Z,6.62
2023-03-29T18:05:37.620Z,6.53
2023-03-29T18:10:40.058Z,6.42
2023-03-29T18:15:45.139Z,6.33
2023-03-29T18:20:47.270Z,6.23
2023-03-29T18:25:49.000Z,6.14
2023-03-29T18:30:52.269Z,6.06
2023-03-29T18:35:54.006Z,5.98
2023-03-29T18:40:56.128Z,5.91
2023-03-29T18:45:58.143Z,5.83
2023-03-29T18:50:59.904Z,5.78
2023-03-29T18:56:03.400Z,5.70
2023-03-29T19:01:06.377Z,5.62
2023-03-29T19:06:08.520Z,5.51
2023-03-29T19:11:14.254Z,5.41
2023-03-29T19:16:17.315Z,5.31
2023-03-29T19:21:19.198Z,5.23
2023-03-29T19:26:21.711Z,5.21
2023-03-29T19:31:23.729Z,5.21
2023-03-29T19:36:25.520Z,5.23
2023-03-29T19:41:27.453Z,5.25
2023-03-29T19:46:29.499Z,5.31
2023-03-29T19:51:31.847Z,5.32
2023-03-29T19:56:34.856Z,5.32
2023-03-29T20:01:40.812Z,5.29
2023-03-29T20:06:42.558Z,5.29
2023-03-29T20:11:46.768Z,5.33
2023-03-29T20:16:52.407Z,5.40
2023-03-29T20:21:58.108Z,5.48
2023-03-29T20:26:59.808Z,5.52
2023-03-29T20:32:01.652Z,5.58
2023-03-29T20:37:03.691Z,5.62
2023-03-29T20:42:06.612Z,5.65
2023-03-29T20:47:14.149Z,5.69
2023-03-29T20:52:16.944Z,5.74
2023-03-29T20:57:20.809Z,5.77
2023-03-29T21:02:23.338Z,5.79
2023-03-29T21:07:26.611Z,5.81
2023-03-29T21:12:34.216Z,5.84
2023-03-29T21:17:38.006Z,5.86
2023-03-29T21:22:43.061Z,5.89
2023-03-29T21:27:44.773Z,5.92
2023-03-29T21:32:48.538Z,5.94
2023-03-29T21:37:51.032Z,5.96
2023-03-29T21:42:53.580Z,5.97
2023-03-29T21:48:08.816Z,5.96
2023-03-29T21:53:14.199Z,5.95
2023-03-29T21:58:16.268Z,5.93
2023-03-29T22:03:18.224Z,5.91
2023-03-29T22:08:19.988Z,5.91
2023-03-29T22:13:23.585Z,5.91
2023-03-29T22:18:30.221Z,5.90
2023-03-29T22:23:31.934Z,5.90
2023-03-29T22:28:36.608Z,5.90
2023-03-29T22:33:39.361Z,5.88
2023-03-29T22:38:41.278Z,5.88
2023-03-29T22:43:43.344Z,5.88
2023-03-29T22:48:46.078Z,5.88
2023-03-29T22:53:47.745Z,5.90
2023-03-29T22:58:49.403Z,5.92
2023-03-29T23:03:51.779Z,5.94
2023-03-29T23:08:55.975Z,5.95
2023-03-29T23:14:22.717Z,5.97
2023-03-29T23:19:24.444Z,6.00
2023-03-29T23:24:26.131Z,6.01
2023-03-29T23:29:28.170Z,6.03
2023-03-29T23:34:30.312Z,6.04
2023-03-29T23:39:32.111Z,6.05
2023-03-29T23:44:34.577Z,6.04
2023-03-29T23:49:38.689Z,6.07
2023-03-29T23:55:01.058Z,6.09
